sensor_id;sensor_type;location;lat;lon;timestamp;pressure;altitude;pressure_sealevel;temperature;humidity
22753;BME280;11543;43.144;24.684;2023-07-30T00:01:31;98466.47;;;22.34;52.97
22753;BME280;11543;43.144;24.684;2023-07-30T00:03:56;98472.16;;;22.44;52.71
22753;BME280;11543;43.144;24.684;2023-07-30T00:06:22;98466.78;;;22.49;52.65
22753;BME280;11543;43.144;24.684;2023-07-30T00:08:47;98475.59;;;22.63;52.25
22753;BME280;11543;43.144;24.684;2023-07-30T00:11:13;98478.78;;;22.71;52.16
22753;BME280;11543;43.144;24.684;2023-07-30T00:13:38;98468.13;;;22.58;52.04
22753;BME280;11543;43.144;24.684;2023-07-30T00:16:04;98479.97;;;22.52;52.65
22753;BME280;11543;43.144;24.684;2023-07-30T00:18:29;98482.97;;;22.50;52.66
22753;BME280;11543;43.144;24.684;2023-07-30T00:20:55;98477.25;;;22.52;52.47
22753;BME280;11543;43.144;24.684;2023-07-30T00:23:20;98483.56;;;22.64;52.52
22753;BME280;11543;43.144;24.684;2023-07-30T00:25:45;98478.09;;;22.64;52.03
22753;BME280;11543;43.144;24.684;2023-07-30T00:28:11;98482.81;;;22.80;51.81
22753;BME280;11543;43.144;24.684;2023-07-30T00:30:36;98469.59;;;22.77;51.58
22753;BME280;11543;43.144;24.684;2023-07-30T00:33:02;98464.38;;;22.76;51.58
22753;BME280;11543;43.144;24.684;2023-07-30T00:35:52;98454.75;;;22.73;51.95
22753;BME280;11543;43.144;24.684;2023-07-30T00:38:28;98470.91;;;22.86;51.56
22753;BME280;11543;43.144;24.684;2023-07-30T00:40:53;98466.41;;;22.80;51.30
22753;BME280;11543;43.144;24.684;2023-07-30T00:43:19;98469.00;;;22.75;51.39
22753;BME280;11543;43.144;24.684;2023-07-30T00:45:45;98454.53;;;22.63;51.65
22753;BME280;11543;43.144;24.684;2023-07-30T00:48:11;98475.66;;;22.79;51.97
22753;BME280;11543;43.144;24.684;2023-07-30T00:50:38;98455.81;;;22.72;51.60
22753;BME280;11543;43.144;24.684;2023-07-30T00:53:04;98477.81;;;22.77;51.71
22753;BME280;11543;43.144;24.684;2023-07-30T00:55:31;98449.56;;;22.60;51.82
22753;BME280;11543;43.144;24.684;2023-07-30T00:57:57;98450.75;;;22.64;52.01
22753;BME280;11543;43.144;24.684;2023-07-30T01:00:23;98478.06;;;22.76;51.79
22753;BME280;11543;43.144;24.684;2023-07-30T01:02:51;98460.22;;;22.73;51.77
22753;BME280;11543;43.144;24.684;2023-07-30T01:05:16;98457.00;;;22.76;51.99
22753;BME280;11543;43.144;24.684;2023-07-30T01:07:42;98451.91;;;22.80;51.89
22753;BME280;11543;43.144;24.684;2023-07-30T01:10:07;98454.41;;;22.81;51.71
22753;BME280;11543;43.144;24.684;2023-07-30T01:12:34;98470.91;;;22.86;51.83
22753;BME280;11543;43.144;24.684;2023-07-30T01:15:01;98450.94;;;22.74;51.93
22753;BME280;11543;43.144;24.684;2023-07-30T01:17:27;98439.81;;;22.64;52.18
22753;BME280;11543;43.144;24.684;2023-07-30T01:19:53;98446.00;;;22.48;52.77
22753;BME280;11543;43.144;24.684;2023-07-30T01:22:22;98466.00;;;22.37;53.54
22753;BME280;11543;43.144;24.684;2023-07-30T01:24:48;98461.75;;;22.17;54.14
22753;BME280;11543;43.144;24.684;2023-07-30T01:27:22;98440.22;;;21.86;54.75
22753;BME280;11543;43.144;24.684;2023-07-30T01:32:25;98447.28;;;21.52;55.70
22753;BME280;11543;43.144;24.684;2023-07-30T01:34:53;98433.63;;;21.40;56.29
22753;BME280;11543;43.144;24.684;2023-07-30T01:37:19;98431.34;;;21.25;56.70
22753;BME280;11543;43.144;24.684;2023-07-30T01:39:47;98459.09;;;21.22;56.99
22753;BME280;11543;43.144;24.684;2023-07-30T01:42:13;98451.31;;;21.08;57.33
22753;BME280;11543;43.144;24.684;2023-07-30T01:44:39;98465.56;;;21.10;57.63
22753;BME280;11543;43.144;24.684;2023-07-30T01:47:05;98451.97;;;20.91;57.73
22753;BME280;11543;43.144;24.684;2023-07-30T01:49:30;98456.97;;;20.94;58.03
22753;BME280;11543;43.144;24.684;2023-07-30T01:51:56;98446.78;;;21.02;57.87
22753;BME280;11543;43.144;24.684;2023-07-30T01:54:21;98449.19;;;21.10;57.64
22753;BME280;11543;43.144;24.684;2023-07-30T01:56:47;98450.28;;;21.20;57.39
22753;BME280;11543;43.144;24.684;2023-07-30T01:59:12;98449.75;;;21.30;57.23
22753;BME280;11543;43.144;24.684;2023-07-30T02:01:38;98456.25;;;21.29;57.29
22753;BME280;11543;43.144;24.684;2023-07-30T02:04:03;98474.91;;;21.32;57.55
22753;BME280;11543;43.144;24.684;2023-07-30T02:06:29;98453.25;;;21.19;57.74
22753;BME280;11543;43.144;24.684;2023-07-30T02:08:55;98462.50;;;21.18;57.85
22753;BME280;11543;43.144;24.684;2023-07-30T02:11:20;98463.78;;;21.15;57.80
22753;BME280;11543;43.144;24.684;2023-07-30T02:13:45;98459.16;;;21.16;57.95
22753;BME280;11543;43.144;24.684;2023-07-30T02:16:11;98473.25;;;21.31;57.64
22753;BME280;11543;43.144;24.684;2023-07-30T02:18:36;98463.66;;;21.40;57.14
22753;BME280;11543;43.144;24.684;2023-07-30T02:21:02;98462.34;;;21.43;56.77
22753;BME280;11543;43.144;24.684;2023-07-30T02:23:28;98470.44;;;21.49;56.50
22753;BME280;11543;43.144;24.684;2023-07-30T02:25:53;98464.50;;;21.52;56.35
22753;BME280;11543;43.144;24.684;2023-07-30T02:28:19;98475.69;;;21.62;56.26
22753;BME280;11543;43.144;24.684;2023-07-30T02:30:44;98473.03;;;21.44;56.39
22753;BME280;11543;43.144;24.684;2023-07-30T02:33:10;98475.66;;;21.21;57.32
22753;BME280;11543;43.144;24.684;2023-07-30T02:35:35;98483.25;;;21.19;57.90
22753;BME280;11543;43.144;24.684;2023-07-30T02:38:01;98471.78;;;20.98;58.59
22753;BME280;11543;43.144;24.684;2023-07-30T02:40:26;98503.59;;;21.05;58.69
22753;BME280;11543;43.144;24.684;2023-07-30T02:42:52;98501.63;;;21.12;58.85
22753;BME280;11543;43.144;24.684;2023-07-30T02:45:17;98491.31;;;21.14;58.46
22753;BME280;11543;43.144;24.684;2023-07-30T02:47:43;98487.81;;;21.25;57.79
22753;BME280;11543;43.144;24.684;2023-07-30T02:50:09;98496.72;;;21.32;57.37
22753;BME280;11543;43.144;24.684;2023-07-30T02:52:34;98494.00;;;21.32;56.96
22753;BME280;11543;43.144;24.684;2023-07-30T02:55:00;98502.47;;;21.42;56.91
22753;BME280;11543;43.144;24.684;2023-07-30T02:57:25;98485.25;;;21.42;56.85
22753;BME280;11543;43.144;24.684;2023-07-30T02:59:51;98489.63;;;21.31;57.02
22753;BME280;11543;43.144;24.684;2023-07-30T03:02:16;98508.84;;;21.36;57.32
22753;BME280;11543;43.144;24.684;2023-07-30T03:04:42;98481.78;;;21.05;57.56
22753;BME280;11543;43.144;24.684;2023-07-30T03:07:09;98503.75;;;21.10;57.87
22753;BME280;11543;43.144;24.684;2023-07-30T03:09:34;98500.59;;;20.94;58.50
22753;BME280;11543;43.144;24.684;2023-07-30T03:12:00;98499.38;;;20.72;58.92
22753;BME280;11543;43.144;24.684;2023-07-30T03:14:26;98496.28;;;20.68;59.23
22753;BME280;11543;43.144;24.684;2023-07-30T03:16:51;98497.09;;;20.69;59.60
22753;BME280;11543;43.144;24.684;2023-07-30T03:19:17;98506.03;;;20.76;59.49
22753;BME280;11543;43.144;24.684;2023-07-30T03:21:42;98499.25;;;20.85;59.16
22753;BME280;11543;43.144;24.684;2023-07-30T03:24:08;98504.38;;;20.93;58.72
22753;BME280;11543;43.144;24.684;2023-07-30T03:26:34;98497.53;;;21.03;58.36
22753;BME280;11543;43.144;24.684;2023-07-30T03:28:59;98501.25;;;21.08;58.14
22753;BME280;11543;43.144;24.684;2023-07-30T03:31:25;98494.50;;;21.11;57.90
22753;BME280;11543;43.144;24.684;2023-07-30T03:33:50;98488.09;;;21.17;57.59
22753;BME280;11543;43.144;24.684;2023-07-30T03:36:16;98505.97;;;21.31;57.57
22753;BME280;11543;43.144;24.684;2023-07-30T03:38:43;98501.47;;;21.25;57.26
22753;BME280;11543;43.144;24.684;2023-07-30T03:41:09;98512.53;;;21.42;57.35
22753;BME280;11543;43.144;24.684;2023-07-30T03:43:35;98504.13;;;21.43;56.99
22753;BME280;11543;43.144;24.684;2023-07-30T03:46:01;98518.38;;;21.45;56.81
22753;BME280;11543;43.144;24.684;2023-07-30T03:48:27;98520.16;;;21.51;56.33
22753;BME280;11543;43.144;24.684;2023-07-30T03:50:53;98514.59;;;21.58;56.12
22753;BME280;11543;43.144;24.684;2023-07-30T03:53:19;98526.84;;;21.67;56.36
22753;BME280;11543;43.144;24.684;2023-07-30T03:55:44;98506.78;;;21.61;56.07
22753;BME280;11543;43.144;24.684;2023-07-30T03:58:10;98479.34;;;21.56;55.64
22753;BME280;11543;43.144;24.684;2023-07-30T04:00:35;98502.78;;;21.76;55.60
22753;BME280;11543;43.144;24.684;2023-07-30T04:03:01;98507.31;;;21.82;55.53
22753;BME280;11543;43.144;24.684;2023-07-30T04:05:26;98509.34;;;21.86;55.51
22753;BME280;11543;43.144;24.684;2023-07-30T04:07:52;98518.22;;;21.82;55.73
22753;BME280;11543;43.144;24.684;2023-07-30T04:10:17;98479.41;;;21.68;55.58
22753;BME280;11543;43.144;24.684;2023-07-30T04:12:43;98489.13;;;21.76;55.68
22753;BME280;11543;43.144;24.684;2023-07-30T04:15:08;98503.97;;;21.80;56.05
22753;BME280;11543;43.144;24.684;2023-07-30T04:17:37;98514.31;;;21.89;55.92
22753;BME280;11543;43.144;24.684;2023-07-30T04:20:04;98520.88;;;22.00;56.08
22753;BME280;11543;43.144;24.684;2023-07-30T04:22:30;98518.28;;;22.05;56.09
22753;BME280;11543;43.144;24.684;2023-07-30T04:24:55;98516.84;;;22.14;55.97
22753;BME280;11543;43.144;24.684;2023-07-30T04:27:21;98517.81;;;22.20;55.77
22753;BME280;11543;43.144;24.684;2023-07-30T04:29:46;98519.22;;;22.22;55.73
22753;BME280;11543;43.144;24.684;2023-07-30T04:32:12;98509.97;;;22.23;55.61
22753;BME280;11543;43.144;24.684;2023-07-30T04:34:38;98517.56;;;22.33;55.36
22753;BME280;11543;43.144;24.684;2023-07-30T04:37:04;98512.94;;;22.34;55.16
22753;BME280;11543;43.144;24.684;2023-07-30T04:39:31;98531.94;;;22.52;55.30
22753;BME280;11543;43.144;24.684;2023-07-30T04:41:57;98536.31;;;22.53;55.30
22753;BME280;11543;43.144;24.684;2023-07-30T04:44:22;98522.66;;;22.53;55.62
22753;BME280;11543;43.144;24.684;2023-07-30T04:46:48;98516.00;;;22.49;55.46
22753;BME280;11543;43.144;24.684;2023-07-30T04:49:13;98528.97;;;22.65;55.41
22753;BME280;11543;43.144;24.684;2023-07-30T04:51:39;98526.09;;;22.72;55.16
22753;BME280;11543;43.144;24.684;2023-07-30T04:54:04;98527.41;;;22.81;54.93
22753;BME280;11543;43.144;24.684;2023-07-30T04:56:30;98511.94;;;22.86;54.81
22753;BME280;11543;43.144;24.684;2023-07-30T04:58:55;98508.25;;;22.93;55.02
22753;BME280;11543;43.144;24.684;2023-07-30T05:01:21;98536.34;;;23.16;55.08
22753;BME280;11543;43.144;24.684;2023-07-30T05:03:46;98531.69;;;23.17;54.98
22753;BME280;11543;43.144;24.684;2023-07-30T05:06:12;98509.81;;;23.17;54.93
22753;BME280;11543;43.144;24.684;2023-07-30T05:08:37;98515.81;;;23.31;54.82
22753;BME280;11543;43.144;24.684;2023-07-30T05:11:03;98520.19;;;23.43;54.52
22753;BME280;11543;43.144;24.684;2023-07-30T05:13:28;98532.03;;;23.61;54.63
22753;BME280;11543;43.144;24.684;2023-07-30T05:15:54;98526.06;;;23.64;54.52
22753;BME280;11543;43.144;24.684;2023-07-30T05:18:19;98526.72;;;23.71;54.14
22753;BME280;11543;43.144;24.684;2023-07-30T05:20:48;98519.25;;;23.83;53.71
22753;BME280;11543;43.144;24.684;2023-07-30T05:23:15;98531.06;;;24.00;53.28
22753;BME280;11543;43.144;24.684;2023-07-30T05:25:41;98498.00;;;23.90;53.28
22753;BME280;11543;43.144;24.684;2023-07-30T05:28:07;98515.94;;;24.14;52.92
22753;BME280;11543;43.144;24.684;2023-07-30T05:30:32;98526.69;;;24.33;52.72
22753;BME280;11543;43.144;24.684;2023-07-30T05:32:58;98522.44;;;24.42;52.34
22753;BME280;11543;43.144;24.684;2023-07-30T05:35:24;98526.72;;;24.55;52.41
22753;BME280;11543;43.144;24.684;2023-07-30T05:37:49;98520.22;;;24.61;52.11
22753;BME280;11543;43.144;24.684;2023-07-30T05:40:15;98519.03;;;24.73;52.01
22753;BME280;11543;43.144;24.684;2023-07-30T05:42:40;98522.97;;;24.83;51.62
22753;BME280;11543;43.144;24.684;2023-07-30T05:45:08;98526.41;;;24.95;51.86
22753;BME280;11543;43.144;24.684;2023-07-30T05:47:33;98508.97;;;25.01;51.65
22753;BME280;11543;43.144;24.684;2023-07-30T05:49:59;98514.06;;;25.14;51.17
22753;BME280;11543;43.144;24.684;2023-07-30T05:52:25;98517.81;;;25.30;51.07
22753;BME280;11543;43.144;24.684;2023-07-30T05:54:50;98525.19;;;25.51;51.02
22753;BME280;11543;43.144;24.684;2023-07-30T05:57:16;98525.59;;;25.65;51.03
22753;BME280;11543;43.144;24.684;2023-07-30T05:59:42;98522.94;;;25.70;50.78
22753;BME280;11543;43.144;24.684;2023-07-30T06:02:08;98525.81;;;25.85;50.48
22753;BME280;11543;43.144;24.684;2023-07-30T06:04:34;98512.72;;;25.97;50.64
22753;BME280;11543;43.144;24.684;2023-07-30T06:07:04;98521.94;;;26.13;50.33
22753;BME280;11543;43.144;24.684;2023-07-30T06:09:31;98522.31;;;26.27;50.63
22753;BME280;11543;43.144;24.684;2023-07-30T06:11:57;98527.94;;;26.42;50.50
22753;BME280;11543;43.144;24.684;2023-07-30T06:14:26;98530.50;;;26.54;50.37
22753;BME280;11543;43.144;24.684;2023-07-30T06:16:53;98525.88;;;26.64;50.57
22753;BME280;11543;43.144;24.684;2023-07-30T06:19:19;98512.13;;;26.64;49.61
22753;BME280;11543;43.144;24.684;2023-07-30T06:21:45;98518.25;;;26.82;50.03
22753;BME280;11543;43.144;24.684;2023-07-30T06:24:10;98530.50;;;27.01;49.56
22753;BME280;11543;43.144;24.684;2023-07-30T06:26:36;98530.03;;;27.19;49.60
22753;BME280;11543;43.144;24.684;2023-07-30T06:29:02;98517.09;;;27.25;48.96
22753;BME280;11543;43.144;24.684;2023-07-30T06:31:27;98531.72;;;27.41;48.53
22753;BME280;11543;43.144;24.684;2023-07-30T06:33:53;98501.97;;;27.43;48.22
22753;BME280;11543;43.144;24.684;2023-07-30T06:36:18;98515.03;;;27.78;47.07
22753;BME280;11543;43.144;24.684;2023-07-30T06:38:44;98508.16;;;27.96;47.22
22753;BME280;11543;43.144;24.684;2023-07-30T06:41:09;98497.66;;;28.08;47.15
22753;BME280;11543;43.144;24.684;2023-07-30T06:43:35;98506.47;;;28.20;46.63
22753;BME280;11543;43.144;24.684;2023-07-30T06:46:00;98501.22;;;28.34;45.49
22753;BME280;11543;43.144;24.684;2023-07-30T06:48:26;98489.63;;;28.47;44.99
22753;BME280;11543;43.144;24.684;2023-07-30T06:50:51;98493.72;;;28.70;44.22
22753;BME280;11543;43.144;24.684;2023-07-30T06:53:17;98489.53;;;28.77;44.38
22753;BME280;11543;43.144;24.684;2023-07-30T06:55:43;98500.81;;;28.96;43.99
22753;BME280;11543;43.144;24.684;2023-07-30T06:58:08;98495.78;;;29.08;43.33
22753;BME280;11543;43.144;24.684;2023-07-30T07:00:34;98495.72;;;29.18;42.85
22753;BME280;11543;43.144;24.684;2023-07-30T07:02:59;98480.53;;;29.21;42.20
22753;BME280;11543;43.144;24.684;2023-07-30T07:05:25;98497.81;;;29.42;41.60
22753;BME280;11543;43.144;24.684;2023-07-30T07:07:50;98492.81;;;29.54;40.92
22753;BME280;11543;43.144;24.684;2023-07-30T07:10:16;98486.69;;;29.57;40.96
22753;BME280;11543;43.144;24.684;2023-07-30T07:12:41;98479.53;;;29.56;40.44
22753;BME280;11543;43.144;24.684;2023-07-30T07:15:07;98478.94;;;29.59;40.67
22753;BME280;11543;43.144;24.684;2023-07-30T07:17:33;98496.47;;;29.84;40.36
22753;BME280;11543;43.144;24.684;2023-07-30T07:19:58;98481.25;;;29.81;39.59
22753;BME280;11543;43.144;24.684;2023-07-30T07:22:24;98484.97;;;30.00;39.99
22753;BME280;11543;43.144;24.684;2023-07-30T07:24:51;98473.13;;;29.95;39.11
22753;BME280;11543;43.144;24.684;2023-07-30T07:27:18;98481.31;;;30.10;38.94
22753;BME280;11543;43.144;24.684;2023-07-30T07:29:43;98469.63;;;30.18;39.05
22753;BME280;11543;43.144;24.684;2023-07-30T07:32:09;98485.50;;;30.36;38.74
22753;BME280;11543;43.144;24.684;2023-07-30T07:34:35;98451.50;;;30.31;38.02
22753;BME280;11543;43.144;24.684;2023-07-30T07:37:01;98444.53;;;30.33;37.31
22753;BME280;11543;43.144;24.684;2023-07-30T07:39:27;98469.78;;;30.56;37.02
22753;BME280;11543;43.144;24.684;2023-07-30T07:41:52;98458.72;;;30.56;36.83
22753;BME280;11543;43.144;24.684;2023-07-30T07:44:19;98458.91;;;30.64;35.60
22753;BME280;11543;43.144;24.684;2023-07-30T07:46:44;98460.75;;;30.74;35.41
22753;BME280;11543;43.144;24.684;2023-07-30T07:49:10;98466.25;;;30.98;33.40
22753;BME280;11543;43.144;24.684;2023-07-30T07:51:35;98469.63;;;31.14;33.19
22753;BME280;11543;43.144;24.684;2023-07-30T07:54:01;98468.78;;;31.18;33.80
22753;BME280;11543;43.144;24.684;2023-07-30T07:56:26;98454.56;;;31.25;32.91
22753;BME280;11543;43.144;24.684;2023-07-30T07:58:52;98456.97;;;31.50;31.36
22753;BME280;11543;43.144;24.684;2023-07-30T08:01:17;98448.56;;;31.55;31.86
22753;BME280;11543;43.144;24.684;2023-07-30T08:03:43;98460.63;;;31.64;31.98
22753;BME280;11543;43.144;24.684;2023-07-30T08:06:09;98444.63;;;31.94;31.55
22753;BME280;11543;43.144;24.684;2023-07-30T08:08:34;98444.88;;;32.11;30.90
22753;BME280;11543;43.144;24.684;2023-07-30T08:11:07;98425.78;;;32.23;30.76
22753;BME280;11543;43.144;24.684;2023-07-30T08:13:33;98440.75;;;32.55;30.60
22753;BME280;11543;43.144;24.684;2023-07-30T08:15:58;98437.75;;;32.65;30.98
22753;BME280;11543;43.144;24.684;2023-07-30T08:18:24;98435.72;;;32.84;30.73
22753;BME280;11543;43.144;24.684;2023-07-30T08:20:50;98437.34;;;33.13;30.81
22753;BME280;11543;43.144;24.684;2023-07-30T08:23:15;98437.28;;;33.40;30.01
22753;BME280;11543;43.144;24.684;2023-07-30T08:25:41;98436.16;;;33.64;29.73
22753;BME280;11543;43.144;24.684;2023-07-30T08:28:06;98429.50;;;33.87;29.00
22753;BME280;11543;43.144;24.684;2023-07-30T08:30:32;98414.78;;;34.17;28.22
22753;BME280;11543;43.144;24.684;2023-07-30T08:32:58;98417.66;;;34.35;28.80
22753;BME280;11543;43.144;24.684;2023-07-30T08:35:25;98413.81;;;34.53;28.29
22753;BME280;11543;43.144;24.684;2023-07-30T08:37:52;98400.63;;;34.76;27.91
22753;BME280;11543;43.144;24.684;2023-07-30T08:40:18;98412.50;;;35.07;28.04
22753;BME280;11543;43.144;24.684;2023-07-30T08:42:43;98418.13;;;35.42;27.84
22753;BME280;11543;43.144;24.684;2023-07-30T08:45:09;98410.09;;;35.58;27.79
22753;BME280;11543;43.144;24.684;2023-07-30T08:47:35;98397.28;;;35.74;27.68
22753;BME280;11543;43.144;24.684;2023-07-30T08:50:04;98397.41;;;35.95;27.45
22753;BME280;11543;43.144;24.684;2023-07-30T08:52:30;98402.13;;;36.12;27.72
22753;BME280;11543;43.144;24.684;2023-07-30T08:54:57;98402.59;;;36.31;26.65
22753;BME280;11543;43.144;24.684;2023-07-30T08:57:24;98384.97;;;36.39;26.53
22753;BME280;11543;43.144;24.684;2023-07-30T08:59:56;98384.81;;;36.74;26.29
22753;BME280;11543;43.144;24.684;2023-07-30T09:02:30;98380.50;;;36.85;25.64
22753;BME280;11543;43.144;24.684;2023-07-30T09:05:00;98384.13;;;37.06;25.91
22753;BME280;11543;43.144;24.684;2023-07-30T09:07:26;98381.50;;;37.30;25.34
22753;BME280;11543;43.144;24.684;2023-07-30T09:09:52;98358.22;;;37.39;24.74
22753;BME280;11543;43.144;24.684;2023-07-30T09:12:17;98370.69;;;37.62;24.42
22753;BME280;11543;43.144;24.684;2023-07-30T09:14:50;98357.84;;;37.61;23.98
22753;BME280;11543;43.144;24.684;2023-07-30T09:17:19;98379.41;;;37.81;23.88
22753;BME280;11543;43.144;24.684;2023-07-30T09:19:45;98373.34;;;37.79;24.37
22753;BME280;11543;43.144;24.684;2023-07-30T09:22:32;98351.69;;;37.68;24.13
22753;BME280;11543;43.144;24.684;2023-07-30T09:25:01;98356.31;;;37.84;23.92
22753;BME280;11543;43.144;24.684;2023-07-30T09:27:28;98375.00;;;37.92;24.31
22753;BME280;11543;43.144;24.684;2023-07-30T09:29:59;98368.56;;;37.92;24.28
22753;BME280;11543;43.144;24.684;2023-07-30T09:32:26;98342.53;;;37.79;24.06
22753;BME280;11543;43.144;24.684;2023-07-30T09:34:52;98349.00;;;38.04;24.58
22753;BME280;11543;43.144;24.684;2023-07-30T09:37:18;98335.41;;;38.27;23.72
22753;BME280;11543;43.144;24.684;2023-07-30T09:39:47;98350.59;;;38.50;23.62
22753;BME280;11543;43.144;24.684;2023-07-30T09:42:13;98334.59;;;38.51;23.70
22753;BME280;11543;43.144;24.684;2023-07-30T09:44:40;98337.50;;;38.67;23.32
22753;BME280;11543;43.144;24.684;2023-07-30T09:47:10;98324.19;;;38.76;23.48
22753;BME280;11543;43.144;24.684;2023-07-30T09:49:37;98336.97;;;39.01;22.75
22753;BME280;11543;43.144;24.684;2023-07-30T09:52:04;98331.94;;;39.19;22.83
22753;BME280;11543;43.144;24.684;2023-07-30T09:54:31;98329.19;;;39.35;22.36
22753;BME280;11543;43.144;24.684;2023-07-30T09:56:58;98342.50;;;39.50;22.54
22753;BME280;11543;43.144;24.684;2023-07-30T09:59:24;98327.94;;;39.60;22.20
22753;BME280;11543;43.144;24.684;2023-07-30T10:01:49;98319.44;;;39.72;21.65
22753;BME280;11543;43.144;24.684;2023-07-30T10:04:19;98318.63;;;39.88;22.33
22753;BME280;11543;43.144;24.684;2023-07-30T10:07:03;98318.34;;;40.05;22.05
22753;BME280;11543;43.144;24.684;2023-07-30T10:09:39;98309.81;;;40.17;21.45
22753;BME280;11543;43.144;24.684;2023-07-30T10:12:14;98302.72;;;40.23;21.97
22753;BME280;11543;43.144;24.684;2023-07-30T10:14:42;98307.44;;;40.51;21.42
22753;BME280;11543;43.144;24.684;2023-07-30T10:17:12;98296.34;;;40.58;21.81
22753;BME280;11543;43.144;24.684;2023-07-30T10:19:38;98290.22;;;40.71;21.10
22753;BME280;11543;43.144;24.684;2023-07-30T10:24:41;98287.13;;;40.92;19.68
22753;BME280;11543;43.144;24.684;2023-07-30T10:27:24;98282.84;;;41.18;19.09
22753;BME280;11543;43.144;24.684;2023-07-30T10:30:12;98288.63;;;41.44;19.34
22753;BME280;11543;43.144;24.684;2023-07-30T10:35:55;98288.75;;;41.71;18.75
22753;BME280;11543;43.144;24.684;2023-07-30T10:38:30;98296.72;;;41.88;18.66
22753;BME280;11543;43.144;24.684;2023-07-30T10:41:14;98288.06;;;42.00;17.09
22753;BME280;11543;43.144;24.684;2023-07-30T10:43:51;98272.06;;;42.04;17.99
22753;BME280;11543;43.144;24.684;2023-07-30T10:46:18;98263.28;;;42.09;16.90
22753;BME280;11543;43.144;24.684;2023-07-30T10:48:46;98258.69;;;42.24;16.73
22753;BME280;11543;43.144;24.684;2023-07-30T10:51:16;98280.31;;;42.43;17.22
22753;BME280;11543;43.144;24.684;2023-07-30T10:53:45;98271.88;;;42.43;16.44
22753;BME280;11543;43.144;24.684;2023-07-30T10:56:12;98279.28;;;42.51;16.70
22753;BME280;11543;43.144;24.684;2023-07-30T10:58:38;98253.47;;;42.49;16.81
22753;BME280;11543;43.144;24.684;2023-07-30T11:01:06;98257.78;;;42.69;16.35
22753;BME280;11543;43.144;24.684;2023-07-30T11:03:32;98232.41;;;42.69;16.67
22753;BME280;11543;43.144;24.684;2023-07-30T11:05:59;98262.13;;;42.89;16.71
22753;BME280;11543;43.144;24.684;2023-07-30T11:08:42;98243.00;;;42.79;17.61
22753;BME280;11543;43.144;24.684;2023-07-30T11:11:09;98235.41;;;42.83;17.52
22753;BME280;11543;43.144;24.684;2023-07-30T11:13:46;98258.22;;;43.01;16.68
22753;BME280;11543;43.144;24.684;2023-07-30T11:16:13;98252.50;;;42.94;17.77
22753;BME280;11543;43.144;24.684;2023-07-30T11:18:41;98227.63;;;43.03;17.58
22753;BME280;11543;43.144;24.684;2023-07-30T11:21:13;98252.44;;;43.24;17.53
22753;BME280;11543;43.144;24.684;2023-07-30T11:23:40;98250.91;;;43.27;18.05
22753;BME280;11543;43.144;24.684;2023-07-30T11:26:08;98248.72;;;43.46;17.93
22753;BME280;11543;43.144;24.684;2023-07-30T11:28:39;98225.75;;;43.51;17.59
22753;BME280;11543;43.144;24.684;2023-07-30T11:34:44;98236.50;;;43.76;17.09
22753;BME280;11543;43.144;24.684;2023-07-30T11:37:10;98230.56;;;43.47;17.59
22753;BME280;11543;43.144;24.684;2023-07-30T11:39:37;98220.81;;;43.41;17.04
22753;BME280;11543;43.144;24.684;2023-07-30T11:42:03;98210.31;;;43.38;17.37
22753;BME280;11543;43.144;24.684;2023-07-30T11:44:38;98214.13;;;43.23;17.39
22753;BME280;11543;43.144;24.684;2023-07-30T11:47:05;98215.66;;;43.17;17.31
22753;BME280;11543;43.144;24.684;2023-07-30T11:49:33;98234.19;;;43.14;17.26
22753;BME280;11543;43.144;24.684;2023-07-30T11:52:09;98201.66;;;42.90;16.98
22753;BME280;11543;43.144;24.684;2023-07-30T11:54:36;98224.38;;;43.01;17.54
22753;BME280;11543;43.144;24.684;2023-07-30T11:57:01;98209.84;;;43.03;16.75
22753;BME280;11543;43.144;24.684;2023-07-30T11:59:36;98211.06;;;43.02;16.96
22753;BME280;11543;43.144;24.684;2023-07-30T12:02:17;98208.81;;;43.18;16.49
22753;BME280;11543;43.144;24.684;2023-07-30T12:04:44;98202.31;;;43.14;17.07
22753;BME280;11543;43.144;24.684;2023-07-30T12:07:11;98175.91;;;42.96;16.90
22753;BME280;11543;43.144;24.684;2023-07-30T12:09:46;98177.63;;;43.04;16.82
22753;BME280;11543;43.144;24.684;2023-07-30T12:12:12;98180.16;;;43.16;17.33
22753;BME280;11543;43.144;24.684;2023-07-30T12:17:15;98182.16;;;43.49;16.05
22753;BME280;11543;43.144;24.684;2023-07-30T12:19:41;98166.16;;;43.64;15.67
22753;BME280;11543;43.144;24.684;2023-07-30T12:22:10;98155.31;;;43.69;16.02
22753;BME280;11543;43.144;24.684;2023-07-30T12:24:35;98151.56;;;43.58;15.54
22753;BME280;11543;43.144;24.684;2023-07-30T12:27:06;98169.16;;;43.85;16.00
22753;BME280;11543;43.144;24.684;2023-07-30T12:29:40;98146.16;;;43.87;15.82
22753;BME280;11543;43.144;24.684;2023-07-30T12:32:06;98145.41;;;43.93;15.90
22753;BME280;11543;43.144;24.684;2023-07-30T12:34:31;98130.00;;;43.83;16.09
22753;BME280;11543;43.144;24.684;2023-07-30T12:37:00;98122.66;;;43.75;15.98
22753;BME280;11543;43.144;24.684;2023-07-30T12:39:28;98138.88;;;43.82;15.87
22753;BME280;11543;43.144;24.684;2023-07-30T12:41:54;98138.81;;;43.75;15.88
22753;BME280;11543;43.144;24.684;2023-07-30T12:44:19;98116.88;;;43.61;16.23
22753;BME280;11543;43.144;24.684;2023-07-30T12:46:45;98125.44;;;43.68;16.09
22753;BME280;11543;43.144;24.684;2023-07-30T12:49:10;98109.59;;;43.57;16.26
22753;BME280;11543;43.144;24.684;2023-07-30T12:51:39;98111.88;;;43.40;16.03
22753;BME280;11543;43.144;24.684;2023-07-30T12:54:09;98120.44;;;43.14;15.99
22753;BME280;11543;43.144;24.684;2023-07-30T12:56:41;98126.44;;;42.72;16.02
22753;BME280;11543;43.144;24.684;2023-07-30T13:02:34;98098.66;;;41.87;16.30
22753;BME280;11543;43.144;24.684;2023-07-30T13:05:04;98120.28;;;41.80;17.38
22753;BME280;11543;43.144;24.684;2023-07-30T13:07:30;98102.41;;;41.69;17.00